sensor_id;sensor_type;location;lat;lon;timestamp;P1;durP1;ratioP1;P2;durP2;ratioP2
8466;SDS011;4270;48.148;11.648;2022-07-29T00:02:17;2.27;;;1.83;;
8466;SDS011;4270;48.148;11.648;2022-07-29T00:04:42;1.70;;;1.60;;
8466;SDS011;4270;48.148;11.648;2022-07-29T00:07:07;2.43;;;2.00;;
8466;SDS011;4270;48.148;11.648;2022-07-29T00:09:32;2.20;;;1.80;;
8466;SDS011;4270;48.148;11.648;2022-07-29T00:11:58;1.80;;;1.50;;
8466;SDS011;4270;48.148;11.648;2022-07-29T00:14:24;1.60;;;1.50;;
8466;SDS011;4270;48.148;11.648;2022-07-29T00:16:49;2.47;;;1.73;;
8466;SDS011;4270;48.148;11.648;2022-07-29T00:19:14;2.30;;;1.30;;
8466;SDS011;4270;48.148;11.648;2022-07-29T00:21:39;1.60;;;1.50;;
8466;SDS011;4270;48.148;11.648;2022-07-29T00:24:05;1.50;;;1.40;;
8466;SDS011;4270;48.148;11.648;2022-07-29T00:26:30;3.60;;;1.70;;
8466;SDS011;4270;48.148;11.648;2022-07-29T00:28:57;1.90;;;1.80;;
8466;SDS011;4270;48.148;11.648;2022-07-29T00:31:22;1.60;;;1.50;;
8466;SDS011;4270;48.148;11.648;2022-07-29T00:33:47;1.60;;;1.50;;
8466;SDS011;4270;48.148;11.648;2022-07-29T00:36:12;2.40;;;2.20;;
8466;SDS011;4270;48.148;11.648;2022-07-29T00:38:38;1.90;;;1.77;;
8466;SDS011;4270;48.148;11.648;2022-07-29T00:41:03;2.43;;;1.73;;
8466;SDS011;4270;48.148;11.648;2022-07-29T00:43:28;4.50;;;1.70;;
8466;SDS011;4270;48.148;11.648;2022-07-29T00:45:53;2.30;;;1.67;;
8466;SDS011;4270;48.148;11.648;2022-07-29T00:48:18;2.83;;;2.20;;
8466;SDS011;4270;48.148;11.648;2022-07-29T00:50:43;1.97;;;1.87;;
8466;SDS011;4270;48.148;11.648;2022-07-29T00:53:09;2.30;;;2.03;;
8466;SDS011;4270;48.148;11.648;2022-07-29T00:55:36;1.77;;;1.67;;
8466;SDS011;4270;48.148;11.648;2022-07-29T00:58:02;3.73;;;1.53;;
8466;SDS011;4270;48.148;11.648;2022-07-29T01:00:28;2.57;;;1.70;;
8466;SDS011;4270;48.148;11.648;2022-07-29T01:02:53;2.23;;;1.77;;
8466;SDS011;4270;48.148;11.648;2022-07-29T01:05:23;2.77;;;2.00;;
8466;SDS011;4270;48.148;11.648;2022-07-29T01:07:49;2.00;;;1.70;;
8466;SDS011;4270;48.148;11.648;2022-07-29T01:10:15;1.80;;;1.70;;
8466;SDS011;4270;48.148;11.648;2022-07-29T01:12:41;1.50;;;1.40;;
8466;SDS011;4270;48.148;11.648;2022-07-29T01:15:08;1.60;;;1.50;;
8466;SDS011;4270;48.148;11.648;2022-07-29T01:17:39;1.90;;;1.70;;
8466;SDS011;4270;48.148;11.648;2022-07-29T01:22:35;1.90;;;1.63;;
8466;SDS011;4270;48.148;11.648;2022-07-29T01:30:18;1.73;;;1.63;;
8466;SDS011;4270;48.148;11.648;2022-07-29T01:32:43;1.70;;;1.60;;
8466;SDS011;4270;48.148;11.648;2022-07-29T01:40:19;2.43;;;1.77;;
8466;SDS011;4270;48.148;11.648;2022-07-29T01:42:49;2.47;;;1.70;;
8466;SDS011;4270;48.148;11.648;2022-07-29T01:46:01;6.83;;;2.00;;
8466;SDS011;4270;48.148;11.648;2022-07-29T01:48:02;1.83;;;1.60;;
8466;SDS011;4270;48.148;11.648;2022-07-29T01:50:30;1.83;;;1.73;;
8466;SDS011;4270;48.148;11.648;2022-07-29T01:52:58;1.90;;;1.77;;
8466;SDS011;4270;48.148;11.648;2022-07-29T01:55:25;1.97;;;1.77;;
8466;SDS011;4270;48.148;11.648;2022-07-29T01:57:52;1.70;;;1.60;;
8466;SDS011;4270;48.148;11.648;2022-07-29T02:00:17;2.83;;;2.10;;
8466;SDS011;4270;48.148;11.648;2022-07-29T02:02:43;2.73;;;2.03;;
8466;SDS011;4270;48.148;11.648;2022-07-29T02:05:09;2.10;;;1.90;;
8466;SDS011;4270;48.148;11.648;2022-07-29T02:07:35;1.87;;;1.67;;
8466;SDS011;4270;48.148;11.648;2022-07-29T02:10:02;2.73;;;2.17;;
8466;SDS011;4270;48.148;11.648;2022-07-29T02:12:28;1.80;;;1.70;;
8466;SDS011;4270;48.148;11.648;2022-07-29T02:14:53;3.50;;;2.10;;
8466;SDS011;4270;48.148;11.648;2022-07-29T02:17:21;2.60;;;2.33;;
8466;SDS011;4270;48.148;11.648;2022-07-29T02:19:47;2.40;;;2.10;;
8466;SDS011;4270;48.148;11.648;2022-07-29T02:22:12;1.70;;;1.60;;
8466;SDS011;4270;48.148;11.648;2022-07-29T02:24:38;1.90;;;1.80;;
8466;SDS011;4270;48.148;11.648;2022-07-29T02:27:05;1.93;;;1.83;;
8466;SDS011;4270;48.148;11.648;2022-07-29T02:29:30;2.73;;;2.10;;
8466;SDS011;4270;48.148;11.648;2022-07-29T02:31:57;2.17;;;1.90;;
8466;SDS011;4270;48.148;11.648;2022-07-29T02:34:24;2.03;;;1.83;;
8466;SDS011;4270;48.148;11.648;2022-07-29T02:36:49;1.90;;;1.80;;
8466;SDS011;4270;48.148;11.648;2022-07-29T02:39:15;2.40;;;1.90;;
8466;SDS011;4270;48.148;11.648;2022-07-29T02:41:47;2.07;;;1.67;;
8466;SDS011;4270;48.148;11.648;2022-07-29T02:44:16;3.17;;;1.87;;
8466;SDS011;4270;48.148;11.648;2022-07-29T02:49:36;1.90;;;1.80;;
8466;SDS011;4270;48.148;11.648;2022-07-29T02:52:09;2.13;;;1.93;;
8466;SDS011;4270;48.148;11.648;2022-07-29T02:57:32;2.03;;;1.83;;
8466;SDS011;4270;48.148;11.648;2022-07-29T02:59:59;2.23;;;2.03;;
8466;SDS011;4270;48.148;11.648;2022-07-29T03:02:28;2.27;;;2.07;;
8466;SDS011;4270;48.148;11.648;2022-07-29T03:04:57;2.20;;;1.50;;
8466;SDS011;4270;48.148;11.648;2022-07-29T03:07:22;2.27;;;1.47;;
8466;SDS011;4270;48.148;11.648;2022-07-29T03:09:48;1.63;;;1.53;;
8466;SDS011;4270;48.148;11.648;2022-07-29T03:12:14;1.67;;;1.57;;
8466;SDS011;4270;48.148;11.648;2022-07-29T03:14:40;1.70;;;1.40;;
8466;SDS011;4270;48.148;11.648;2022-07-29T03:17:05;1.40;;;1.20;;
8466;SDS011;4270;48.148;11.648;2022-07-29T03:19:31;2.70;;;1.37;;
8466;SDS011;4270;48.148;11.648;2022-07-29T03:21:57;1.80;;;1.70;;
8466;SDS011;4270;48.148;11.648;2022-07-29T03:24:26;3.83;;;1.50;;
8466;SDS011;4270;48.148;11.648;2022-07-29T03:26:51;2.07;;;1.90;;
8466;SDS011;4270;48.148;11.648;2022-07-29T03:29:17;1.70;;;1.60;;
8466;SDS011;4270;48.148;11.648;2022-07-29T03:31:42;2.27;;;1.60;;
8466;SDS011;4270;48.148;11.648;2022-07-29T03:34:07;2.23;;;1.60;;
8466;SDS011;4270;48.148;11.648;2022-07-29T03:36:32;4.10;;;1.70;;
8466;SDS011;4270;48.148;11.648;2022-07-29T03:38:58;3.13;;;2.20;;
8466;SDS011;4270;48.148;11.648;2022-07-29T03:41:24;3.50;;;2.10;;
8466;SDS011;4270;48.148;11.648;2022-07-29T03:43:50;2.00;;;1.80;;
8466;SDS011;4270;48.148;11.648;2022-07-29T03:46:16;2.73;;;1.50;;
8466;SDS011;4270;48.148;11.648;2022-07-29T03:48:42;2.33;;;1.83;;
8466;SDS011;4270;48.148;11.648;2022-07-29T03:51:11;1.73;;;1.63;;
8466;SDS011;4270;48.148;11.648;2022-07-29T03:53:36;3.53;;;2.00;;
8466;SDS011;4270;48.148;11.648;2022-07-29T03:56:02;2.60;;;2.10;;
8466;SDS011;4270;48.148;11.648;2022-07-29T03:58:29;4.63;;;1.90;;
8466;SDS011;4270;48.148;11.648;2022-07-29T04:00:55;4.40;;;2.40;;
8466;SDS011;4270;48.148;11.648;2022-07-29T04:03:20;2.53;;;2.30;;
8466;SDS011;4270;48.148;11.648;2022-07-29T04:05:57;3.20;;;2.00;;
8466;SDS011;4270;48.148;11.648;2022-07-29T04:08:22;3.23;;;2.67;;
8466;SDS011;4270;48.148;11.648;2022-07-29T04:10:47;2.37;;;2.17;;
8466;SDS011;4270;48.148;11.648;2022-07-29T04:13:13;3.50;;;2.20;;
8466;SDS011;4270;48.148;11.648;2022-07-29T04:15:38;5.80;;;3.30;;
8466;SDS011;4270;48.148;11.648;2022-07-29T04:18:03;2.07;;;1.87;;
8466;SDS011;4270;48.148;11.648;2022-07-29T04:20:28;2.10;;;1.87;;
8466;SDS011;4270;48.148;11.648;2022-07-29T04:22:54;2.90;;;2.03;;
8466;SDS011;4270;48.148;11.648;2022-07-29T04:25:19;3.33;;;2.10;;
8466;SDS011;4270;48.148;11.648;2022-07-29T04:27:44;3.83;;;2.30;;
8466;SDS011;4270;48.148;11.648;2022-07-29T04:30:25;2.13;;;1.97;;
8466;SDS011;4270;48.148;11.648;2022-07-29T04:32:50;2.60;;;2.40;;
8466;SDS011;4270;48.148;11.648;2022-07-29T04:35:15;2.93;;;2.07;;
8466;SDS011;4270;48.148;11.648;2022-07-29T04:37:41;2.10;;;1.90;;
8466;SDS011;4270;48.148;11.648;2022-07-29T04:40:06;2.57;;;2.00;;
8466;SDS011;4270;48.148;11.648;2022-07-29T04:42:31;3.63;;;2.20;;
8466;SDS011;4270;48.148;11.648;2022-07-29T04:44:56;2.70;;;2.33;;
8466;SDS011;4270;48.148;11.648;2022-07-29T04:47:22;5.30;;;2.00;;
8466;SDS011;4270;48.148;11.648;2022-07-29T04:49:47;4.70;;;2.40;;
8466;SDS011;4270;48.148;11.648;2022-07-29T04:52:12;2.60;;;2.30;;
8466;SDS011;4270;48.148;11.648;2022-07-29T04:54:37;2.77;;;2.53;;
8466;SDS011;4270;48.148;11.648;2022-07-29T04:57:03;3.97;;;2.60;;
8466;SDS011;4270;48.148;11.648;2022-07-29T04:59:28;4.30;;;2.30;;
8466;SDS011;4270;48.148;11.648;2022-07-29T05:01:53;4.53;;;2.83;;
8466;SDS011;4270;48.148;11.648;2022-07-29T05:04:19;2.40;;;2.20;;
8466;SDS011;4270;48.148;11.648;2022-07-29T05:06:45;2.10;;;1.70;;
8466;SDS011;4270;48.148;11.648;2022-07-29T05:09:10;2.03;;;1.90;;
8466;SDS011;4270;48.148;11.648;2022-07-29T05:11:35;2.50;;;2.30;;
8466;SDS011;4270;48.148;11.648;2022-07-29T05:14:00;2.00;;;1.90;;
8466;SDS011;4270;48.148;11.648;2022-07-29T05:16:26;2.70;;;1.93;;
8466;SDS011;4270;48.148;11.648;2022-07-29T05:18:51;2.00;;;1.80;;
8466;SDS011;4270;48.148;11.648;2022-07-29T05:21:16;4.53;;;2.10;;
8466;SDS011;4270;48.148;11.648;2022-07-29T05:23:42;3.20;;;1.93;;
8466;SDS011;4270;48.148;11.648;2022-07-29T05:26:07;2.07;;;1.80;;
8466;SDS011;4270;48.148;11.648;2022-07-29T05:28:33;1.93;;;1.60;;
8466;SDS011;4270;48.148;11.648;2022-07-29T05:30:58;3.23;;;1.87;;
8466;SDS011;4270;48.148;11.648;2022-07-29T05:33:23;1.87;;;1.67;;
8466;SDS011;4270;48.148;11.648;2022-07-29T05:35:48;2.00;;;1.80;;
8466;SDS011;4270;48.148;11.648;2022-07-29T05:38:13;3.77;;;1.80;;
8466;SDS011;4270;48.148;11.648;2022-07-29T05:40:39;1.70;;;1.60;;
8466;SDS011;4270;48.148;11.648;2022-07-29T05:43:04;2.43;;;1.80;;
8466;SDS011;4270;48.148;11.648;2022-07-29T05:45:29;2.33;;;1.70;;
8466;SDS011;4270;48.148;11.648;2022-07-29T05:47:54;2.43;;;2.17;;
8466;SDS011;4270;48.148;11.648;2022-07-29T05:50:20;1.53;;;1.43;;
8466;SDS011;4270;48.148;11.648;2022-07-29T05:52:45;2.43;;;1.60;;
8466;SDS011;4270;48.148;11.648;2022-07-29T05:55:10;1.97;;;1.87;;
8466;SDS011;4270;48.148;11.648;2022-07-29T05:57:36;2.23;;;1.60;;
8466;SDS011;4270;48.148;11.648;2022-07-29T06:00:01;3.40;;;1.93;;
8466;SDS011;4270;48.148;11.648;2022-07-29T06:02:26;3.00;;;1.83;;
8466;SDS011;4270;48.148;11.648;2022-07-29T06:04:52;2.10;;;1.80;;
8466;SDS011;4270;48.148;11.648;2022-07-29T06:07:17;3.30;;;1.97;;
8466;SDS011;4270;48.148;11.648;2022-07-29T06:09:42;2.90;;;1.93;;
8466;SDS011;4270;48.148;11.648;2022-07-29T06:12:08;2.50;;;2.00;;
8466;SDS011;4270;48.148;11.648;2022-07-29T06:14:33;2.80;;;2.00;;
8466;SDS011;4270;48.148;11.648;2022-07-29T06:16:58;2.13;;;1.70;;
8466;SDS011;4270;48.148;11.648;2022-07-29T06:19:23;2.23;;;1.70;;
8466;SDS011;4270;48.148;11.648;2022-07-29T06:21:49;2.00;;;1.80;;
8466;SDS011;4270;48.148;11.648;2022-07-29T06:24:14;2.73;;;1.90;;
8466;SDS011;4270;48.148;11.648;2022-07-29T06:26:40;3.00;;;1.60;;
8466;SDS011;4270;48.148;11.648;2022-07-29T06:29:06;2.30;;;1.80;;
8466;SDS011;4270;48.148;11.648;2022-07-29T06:31:31;5.03;;;2.00;;
8466;SDS011;4270;48.148;11.648;2022-07-29T06:33:56;1.53;;;1.43;;
8466;SDS011;4270;48.148;11.648;2022-07-29T06:36:22;1.70;;;1.53;;
8466;SDS011;4270;48.148;11.648;2022-07-29T06:38:47;1.70;;;1.60;;
8466;SDS011;4270;48.148;11.648;2022-07-29T06:41:12;2.27;;;2.00;;
8466;SDS011;4270;48.148;11.648;2022-07-29T06:43:40;1.90;;;1.80;;
8466;SDS011;4270;48.148;11.648;2022-07-29T06:46:07;2.30;;;2.10;;
8466;SDS011;4270;48.148;11.648;2022-07-29T06:48:32;3.13;;;1.80;;
8466;SDS011;4270;48.148;11.648;2022-07-29T06:50:58;5.00;;;1.90;;
8466;SDS011;4270;48.148;11.648;2022-07-29T06:53:23;2.20;;;2.00;;
8466;SDS011;4270;48.148;11.648;2022-07-29T06:55:49;2.80;;;1.70;;
8466;SDS011;4270;48.148;11.648;2022-07-29T06:58:14;4.13;;;1.77;;
8466;SDS011;4270;48.148;11.648;2022-07-29T07:00:41;3.70;;;2.07;;
8466;SDS011;4270;48.148;11.648;2022-07-29T07:03:06;2.30;;;1.93;;
8466;SDS011;4270;48.148;11.648;2022-07-29T07:05:31;2.00;;;1.80;;
8466;SDS011;4270;48.148;11.648;2022-07-29T07:07:57;1.53;;;1.43;;
8466;SDS011;4270;48.148;11.648;2022-07-29T07:10:22;1.90;;;1.80;;
8466;SDS011;4270;48.148;11.648;2022-07-29T07:12:47;2.37;;;1.80;;
8466;SDS011;4270;48.148;11.648;2022-07-29T07:15:12;2.00;;;1.77;;
8466;SDS011;4270;48.148;11.648;2022-07-29T07:17:38;1.97;;;1.73;;
8466;SDS011;4270;48.148;11.648;2022-07-29T07:20:04;2.30;;;2.10;;
8466;SDS011;4270;48.148;11.648;2022-07-29T07:22:29;7.53;;;1.90;;
8466;SDS011;4270;48.148;11.648;2022-07-29T07:24:55;1.83;;;1.57;;
8466;SDS011;4270;48.148;11.648;2022-07-29T07:27:20;3.77;;;1.83;;
8466;SDS011;4270;48.148;11.648;2022-07-29T07:29:45;1.80;;;1.60;;
8466;SDS011;4270;48.148;11.648;2022-07-29T07:32:10;2.90;;;1.80;;
8466;SDS011;4270;48.148;11.648;2022-07-29T07:34:38;3.67;;;1.50;;
8466;SDS011;4270;48.148;11.648;2022-07-29T07:37:03;3.30;;;1.87;;
8466;SDS011;4270;48.148;11.648;2022-07-29T07:39:28;2.57;;;1.70;;
8466;SDS011;4270;48.148;11.648;2022-07-29T07:41:53;3.10;;;1.87;;
8466;SDS011;4270;48.148;11.648;2022-07-29T07:44:19;3.77;;;2.20;;
8466;SDS011;4270;48.148;11.648;2022-07-29T07:46:44;2.27;;;1.90;;
8466;SDS011;4270;48.148;11.648;2022-07-29T07:49:10;1.87;;;1.70;;
8466;SDS011;4270;48.148;11.648;2022-07-29T07:51:35;2.07;;;1.87;;
8466;SDS011;4270;48.148;11.648;2022-07-29T07:54:00;2.13;;;1.93;;
8466;SDS011;4270;48.148;11.648;2022-07-29T07:56:26;2.70;;;2.00;;
8466;SDS011;4270;48.148;11.648;2022-07-29T07:58:51;2.20;;;1.73;;
8466;SDS011;4270;48.148;11.648;2022-07-29T08:01:16;1.70;;;1.60;;
8466;SDS011;4270;48.148;11.648;2022-07-29T08:03:43;1.47;;;1.37;;
8466;SDS011;4270;48.148;11.648;2022-07-29T08:06:09;2.70;;;1.83;;
8466;SDS011;4270;48.148;11.648;2022-07-29T08:08:34;3.97;;;1.50;;
8466;SDS011;4270;48.148;11.648;2022-07-29T08:10:59;3.20;;;1.80;;
8466;SDS011;4270;48.148;11.648;2022-07-29T08:13:26;1.80;;;1.70;;
8466;SDS011;4270;48.148;11.648;2022-07-29T08:15:53;2.03;;;1.67;;
8466;SDS011;4270;48.148;11.648;2022-07-29T08:18:23;1.70;;;1.60;;
8466;SDS011;4270;48.148;11.648;2022-07-29T08:20:48;3.50;;;1.70;;
8466;SDS011;4270;48.148;11.648;2022-07-29T08:23:14;2.33;;;1.80;;
8466;SDS011;4270;48.148;11.648;2022-07-29T08:25:39;1.80;;;1.70;;
8466;SDS011;4270;48.148;11.648;2022-07-29T08:28:04;2.00;;;1.80;;
8466;SDS011;4270;48.148;11.648;2022-07-29T08:30:29;2.20;;;2.00;;
8466;SDS011;4270;48.148;11.648;2022-07-29T08:32:55;1.70;;;1.60;;
8466;SDS011;4270;48.148;11.648;2022-07-29T08:35:20;2.00;;;1.90;;
8466;SDS011;4270;48.148;11.648;2022-07-29T08:37:46;3.23;;;1.53;;
8466;SDS011;4270;48.148;11.648;2022-07-29T08:40:11;2.23;;;1.90;;
8466;SDS011;4270;48.148;11.648;2022-07-29T08:42:36;1.90;;;1.63;;
8466;SDS011;4270;48.148;11.648;2022-07-29T08:45:02;2.70;;;2.17;;
8466;SDS011;4270;48.148;11.648;2022-07-29T08:47:27;1.97;;;1.80;;
8466;SDS011;4270;48.148;11.648;2022-07-29T08:52:25;2.20;;;2.00;;
8466;SDS011;4270;48.148;11.648;2022-07-29T08:54:52;2.43;;;2.20;;
8466;SDS011;4270;48.148;11.648;2022-07-29T08:57:17;1.93;;;1.77;;
8466;SDS011;4270;48.148;11.648;2022-07-29T08:59:43;2.33;;;2.13;;
8466;SDS011;4270;48.148;11.648;2022-07-29T09:02:20;4.07;;;2.30;;
8466;SDS011;4270;48.148;11.648;2022-07-29T09:04:46;2.57;;;2.10;;
8466;SDS011;4270;48.148;11.648;2022-07-29T09:07:14;2.23;;;2.03;;
8466;SDS011;4270;48.148;11.648;2022-07-29T09:09:39;4.07;;;2.37;;
8466;SDS011;4270;48.148;11.648;2022-07-29T09:12:05;2.27;;;1.90;;
8466;SDS011;4270;48.148;11.648;2022-07-29T09:14:32;3.00;;;2.73;;
8466;SDS011;4270;48.148;11.648;2022-07-29T09:16:57;2.70;;;2.20;;
8466;SDS011;4270;48.148;11.648;2022-07-29T09:19:23;5.00;;;2.80;;
8466;SDS011;4270;48.148;11.648;2022-07-29T09:21:49;2.70;;;2.40;;
8466;SDS011;4270;48.148;11.648;2022-07-29T09:24:23;5.43;;;2.20;;
8466;SDS011;4270;48.148;11.648;2022-07-29T09:26:49;3.30;;;2.57;;
8466;SDS011;4270;48.148;11.648;2022-07-29T09:29:18;2.03;;;1.80;;
8466;SDS011;4270;48.148;11.648;2022-07-29T09:31:47;2.50;;;2.30;;
8466;SDS011;4270;48.148;11.648;2022-07-29T09:34:13;2.43;;;2.23;;
8466;SDS011;4270;48.148;11.648;2022-07-29T09:36:39;3.40;;;2.40;;
8466;SDS011;4270;48.148;11.648;2022-07-29T09:39:05;2.50;;;2.30;;
8466;SDS011;4270;48.148;11.648;2022-07-29T09:41:43;2.50;;;2.30;;
8466;SDS011;4270;48.148;11.648;2022-07-29T09:44:08;3.00;;;2.70;;
8466;SDS011;4270;48.148;11.648;2022-07-29T09:46:34;2.70;;;2.50;;
8466;SDS011;4270;48.148;11.648;2022-07-29T09:49:09;2.27;;;2.10;;
8466;SDS011;4270;48.148;11.648;2022-07-29T09:51:34;3.63;;;2.60;;
8466;SDS011;4270;48.148;11.648;2022-07-29T09:54:00;3.80;;;2.30;;
8466;SDS011;4270;48.148;11.648;2022-07-29T09:56:40;3.00;;;2.70;;
8466;SDS011;4270;48.148;11.648;2022-07-29T09:59:06;3.20;;;2.90;;
8466;SDS011;4270;48.148;11.648;2022-07-29T10:01:32;3.17;;;2.93;;
8466;SDS011;4270;48.148;11.648;2022-07-29T10:03:57;3.03;;;2.70;;
8466;SDS011;4270;48.148;11.648;2022-07-29T10:06:22;3.10;;;2.80;;
8466;SDS011;4270;48.148;11.648;2022-07-29T10:08:47;3.37;;;3.00;;
8466;SDS011;4270;48.148;11.648;2022-07-29T10:11:17;3.63;;;3.00;;
8466;SDS011;4270;48.148;11.648;2022-07-29T10:13:43;2.93;;;2.73;;
8466;SDS011;4270;48.148;11.648;2022-07-29T10:16:09;3.27;;;2.97;;
8466;SDS011;4270;48.148;11.648;2022-07-29T10:18:34;3.03;;;2.73;;
8466;SDS011;4270;48.148;11.648;2022-07-29T10:20:59;3.60;;;3.20;;
8466;SDS011;4270;48.148;11.648;2022-07-29T10:23:29;3.07;;;2.87;;
8466;SDS011;4270;48.148;11.648;2022-07-29T10:25:54;3.17;;;2.80;;
8466;SDS011;4270;48.148;11.648;2022-07-29T10:28:19;3.20;;;2.80;;
8466;SDS011;4270;48.148;11.648;2022-07-29T10:30:44;3.70;;;2.57;;
8466;SDS011;4270;48.148;11.648;2022-07-29T10:33:22;2.80;;;2.50;;
8466;SDS011;4270;48.148;11.648;2022-07-29T10:43:47;3.77;;;3.20;;
8466;SDS011;4270;48.148;11.648;2022-07-29T10:46:13;3.30;;;2.90;;
8466;SDS011;4270;48.148;11.648;2022-07-29T10:51:23;4.60;;;3.33;;
8466;SDS011;4270;48.148;11.648;2022-07-29T10:53:50;4.60;;;3.10;;
8466;SDS011;4270;48.148;11.648;2022-07-29T11:01:34;6.37;;;3.03;;
8466;SDS011;4270;48.148;11.648;2022-07-29T11:03:59;5.40;;;2.90;;
8466;SDS011;4270;48.148;11.648;2022-07-29T11:06:25;3.40;;;2.60;;
8466;SDS011;4270;48.148;11.648;2022-07-29T11:09:17;3.60;;;3.30;;
8466;SDS011;4270;48.148;11.648;2022-07-29T11:11:45;4.50;;;2.83;;
8466;SDS011;4270;48.148;11.648;2022-07-29T11:14:11;3.73;;;3.07;;
8466;SDS011;4270;48.148;11.648;2022-07-29T11:16:57;6.10;;;3.10;;
8466;SDS011;4270;48.148;11.648;2022-07-29T11:19:23;3.10;;;2.80;;
8466;SDS011;4270;48.148;11.648;2022-07-29T11:21:48;5.53;;;3.10;;
8466;SDS011;4270;48.148;11.648;2022-07-29T11:24:24;5.00;;;3.10;;
8466;SDS011;4270;48.148;11.648;2022-07-29T11:27:12;5.30;;;2.87;;
8466;SDS011;4270;48.148;11.648;2022-07-29T11:29:38;3.87;;;3.00;;
8466;SDS011;4270;48.148;11.648;2022-07-29T11:32:12;4.27;;;2.90;;
8466;SDS011;4270;48.148;11.648;2022-07-29T11:34:38;3.30;;;2.60;;
8466;SDS011;4270;48.148;11.648;2022-07-29T11:39:40;3.40;;;2.70;;
8466;SDS011;4270;48.148;11.648;2022-07-29T11:47:26;3.50;;;2.60;;
8466;SDS011;4270;48.148;11.648;2022-07-29T11:49:52;2.93;;;2.70;;
8466;SDS011;4270;48.148;11.648;2022-07-29T11:52:18;2.83;;;2.40;;
8466;SDS011;4270;48.148;11.648;2022-07-29T11:54:43;8.77;;;7.87;;
8466;SDS011;4270;48.148;11.648;2022-07-29T11:57:08;6.13;;;3.00;;
8466;SDS011;4270;48.148;11.648;2022-07-29T11:59:40;6.53;;;2.90;;
8466;SDS011;4270;48.148;11.648;2022-07-29T12:02:06;3.00;;;2.60;;
8466;SDS011;4270;48.148;11.648;2022-07-29T12:04:31;4.37;;;2.80;;
8466;SDS011;4270;48.148;11.648;2022-07-29T12:06:57;4.90;;;2.63;;
8466;SDS011;4270;48.148;11.648;2022-07-29T12:09:22;5.43;;;4.70;;
8466;SDS011;4270;48.148;11.648;2022-07-29T12:11:48;3.33;;;3.03;;
8466;SDS011;4270;48.148;11.648;2022-07-29T12:14:26;3.17;;;2.40;;
8466;SDS011;4270;48.148;11.648;2022-07-29T12:16:52;3.10;;;2.73;;
8466;SDS011;4270;48.148;11.648;2022-07-29T12:19:17;4.27;;;3.13;;
8466;SDS011;4270;48.148;11.648;2022-07-29T12:21:51;5.30;;;2.77;;
8466;SDS011;4270;48.148;11.648;2022-07-29T12:24:17;3.40;;;2.60;;
8466;SDS011;4270;48.148;11.648;2022-07-29T12:26:49;2.50;;;2.30;;
8466;SDS011;4270;48.148;11.648;2022-07-29T12:29:15;3.23;;;2.73;;
8466;SDS011;4270;48.148;11.648;2022-07-29T12:31:41;2.60;;;2.40;;
8466;SDS011;4270;48.148;11.648;2022-07-29T12:34:07;2.80;;;2.60;;
8466;SDS011;4270;48.148;11.648;2022-07-29T12:36:32;2.70;;;2.43;;
8466;SDS011;4270;48.148;11.648;2022-07-29T12:38:57;3.73;;;2.97;;
8466;SDS011;4270;48.148;11.648;2022-07-29T12:41:23;2.63;;;2.43;;
8466;SDS011;4270;48.148;11.648;2022-07-29T12:43:52;3.63;;;2.60;;
8466;SDS011;4270;48.148;11.648;2022-07-29T12:46:17;2.77;;;2.30;;
8466;SDS011;4270;48.148;11.648;2022-07-29T12:48:43;4.63;;;2.73;;
8466;SDS011;4270;48.148;11.648;2022-07-29T12:51:09;2.87;;;2.57;;
8466;SDS011;4270;48.148;11.648;2022-07-29T12:53:36;4.70;;;2.70;;
8466;SDS011;4270;48.148;11.648;2022-07-29T12:56:02;3.60;;;2.73;;
8466;SDS011;4270;48.148;11.648;2022-07-29T12:58:32;4.23;;;2.60;;
8466;SDS011;4270;48.148;11.648;2022-07-29T13:03:45;3.37;;;2.57;;
8466;SDS011;4270;48.148;11.648;2022-07-29T13:06:27;2.80;;;2.53;;
8466;SDS011;4270;48.148;11.648;2022-07-29T13:08:59;5.63;;;2.87;;
8466;SDS011;4270;48.148;11.648;2022-07-29T13:11:28;3.50;;;2.70;;
8466;SDS011;4270;48.148;11.648;2022-07-29T13:13:54;4.10;;;3.00;;
8466;SDS011;4270;48.148;11.648;2022-07-29T13:16:19;3.13;;;2.80;;
8466;SDS011;4270;48.148;11.648;2022-07-29T13:18:44;5.40;;;2.83;;
8466;SDS011;4270;48.148;11.648;2022-07-29T13:21:10;3.83;;;2.70;;
8466;SDS011;4270;48.148;11.648;2022-07-29T13:23:36;3.00;;;2.63;;
8466;SDS011;4270;48.148;11.648;2022-07-29T13:26:07;4.17;;;2.43;;
8466;SDS011;4270;48.148;11.648;2022-07-29T13:28:33;3.43;;;2.90;;
8466;SDS011;4270;48.148;11.648;2022-07-29T13:30:59;3.10;;;2.80;;
8466;SDS011;4270;48.148;11.648;2022-07-29T13:33:24;2.93;;;2.73;;
8466;SDS011;4270;48.148;11.648;2022-07-29T13:35:49;3.22;;;2.92;;
8466;SDS011;4270;48.148;11.648;2022-07-29T13:38:14;3.83;;;2.40;;
8466;SDS011;4270;48.148;11.648;2022-07-29T13:40:40;3.40;;;2.50;;
8466;SDS011;4270;48.148;11.648;2022-07-29T13:43:08;2.40;;;2.20;;
8466;SDS011;4270;48.148;11.648;2022-07-29T13:45:33;3.57;;;2.80;;
8466;SDS011;4270;48.148;11.648;2022-07-29T13:47:58;3.27;;;2.40;;
8466;SDS011;4270;48.148;11.648;2022-07-29T13:50:23;3.43;;;2.50;;
8466;SDS011;4270;48.148;11.648;2022-07-29T13:52:49;4.17;;;2.70;;
8466;SDS011;4270;48.148;11.648;2022-07-29T13:55:15;4.20;;;2.80;;
8466;SDS011;4270;48.148;11.648;2022-07-29T13:57:40;3.00;;;2.70;;
8466;SDS011;4270;48.148;11.648;2022-07-29T14:00:06;2.57;;;2.37;;
8466;SDS011;4270;48.148;11.648;2022-07-29T14:02:31;3.40;;;2.90;;
8466;SDS011;4270;48.148;11.648;2022-07-29T14:04:57;2.70;;;2.50;;
8466;SDS011;4270;48.148;11.648;2022-07-29T14:07:23;3.70;;;2.60;;
8466;SDS011;4270;48.148;11.648;2022-07-29T14:09:48;5.47;;;2.67;;
8466;SDS011;4270;48.148;11.648;2022-07-29T14:12:13;4.53;;;2.80;;
8466;SDS011;4270;48.148;11.648;2022-07-29T14:14:38;3.80;;;2.60;;
8466;SDS011;4270;48.148;11.648;2022-07-29T14:17:04;2.67;;;2.47;;
8466;SDS011;4270;48.148;11.648;2022-07-29T14:19:31;3.33;;;2.77;;
8466;SDS011;4270;48.148;11.648;2022-07-29T14:22:00;3.87;;;2.40;;
8466;SDS011;4270;48.148;11.648;2022-07-29T14:24:25;4.23;;;2.67;;
8466;SDS011;4270;48.148;11.648;2022-07-29T14:26:50;5.07;;;2.90;;
8466;SDS011;4270;48.148;11.648;2022-07-29T14:29:15;3.17;;;2.70;;
8466;SDS011;4270;48.148;11.648;2022-07-29T14:31:40;3.03;;;2.40;;
8466;SDS011;4270;48.148;11.648;2022-07-29T14:34:07;3.40;;;2.60;;
8466;SDS011;4270;48.148;11.648;2022-07-29T14:36:32;6.30;;;2.70;;
8466;SDS011;4270;48.148;11.648;2022-07-29T14:38:57;4.23;;;2.57;;
8466;SDS011;4270;48.148;11.648;2022-07-29T14:41:22;3.20;;;2.63;;
8466;SDS011;4270;48.148;11.648;2022-07-29T14:43:48;3.10;;;2.90;;
8466;SDS011;4270;48.148;11.648;2022-07-29T14:46:13;3.40;;;3.10;;
8466;SDS011;4270;48.148;11.648;2022-07-29T14:48:38;2.63;;;2.40;;
8466;SDS011;4270;48.148;11.648;2022-07-29T14:51:03;2.50;;;2.30;;
8466;SDS011;4270;48.148;11.648;2022-07-29T14:53:28;4.50;;;2.40;;
8466;SDS011;4270;48.148;11.648;2022-07-29T14:55:53;2.77;;;2.17;;
8466;SDS011;4270;48.148;11.648;2022-07-29T14:58:19;3.30;;;2.00;;
8466;SDS011;4270;48.148;11.648;2022-07-29T15:00:46;3.00;;;2.70;;
8466;SDS011;4270;48.148;11.648;2022-07-29T15:03:11;2.20;;;2.00;;
8466;SDS011;4270;48.148;11.648;2022-07-29T15:05:37;3.87;;;2.80;;
8466;SDS011;4270;48.148;11.648;2022-07-29T15:08:02;2.73;;;2.40;;
8466;SDS011;4270;48.148;11.648;2022-07-29T15:10:27;3.20;;;2.73;;
8466;SDS011;4270;48.148;11.648;2022-07-29T15:12:53;4.47;;;2.40;;
8466;SDS011;4270;48.148;11.648;2022-07-29T15:15:18;2.50;;;2.30;;
8466;SDS011;4270;48.148;11.648;2022-07-29T15:17:43;3.90;;;2.37;;
8466;SDS011;4270;48.148;11.648;2022-07-29T15:20:09;3.77;;;2.47;;
8466;SDS011;4270;48.148;11.648;2022-07-29T15:22:34;5.50;;;2.73;;
8466;SDS011;4270;48.148;11.648;2022-07-29T15:24:59;3.00;;;2.33;;
8466;SDS011;4270;48.148;11.648;2022-07-29T15:27:24;3.33;;;2.53;;
8466;SDS011;4270;48.148;11.648;2022-07-29T15:29:50;3.67;;;2.67;;
8466;SDS011;4270;48.148;11.648;2022-07-29T15:32:15;6.30;;;2.60;;
8466;SDS011;4270;48.148;11.648;2022-07-29T15:34:41;3.70;;;2.70;;
8466;SDS011;4270;48.148;11.648;2022-07-29T15:37:06;2.43;;;2.23;;
8466;SDS011;4270;48.148;11.648;2022-07-29T15:39:31;2.90;;;2.70;;
8466;SDS011;4270;48.148;11.648;2022-07-29T15:41:56;5.73;;;3.10;;
8466;SDS011;4270;48.148;11.648;2022-07-29T15:44:22;3.50;;;3.20;;